Time;durP1;ratioP1;P1;durP2;ratioP2;P2;SDS_P1;SDS_P2;PMS_P1;PMS_P2;Temp;Humidity;BMP_temperature;BMP_pressure;BME280_temperature;BME280_humidity;BME280_pressure;Samples;Min_cycle;Max_cycle;Signal;HPM_P1;HPM_P2
2022/12/03 00:01:59;;;;;;;8.77;7.10;;;1.70;99.90;;;;;;6336503;28;20271;-68
2022/12/03 00:05:05;;;;;;;10.40;7.67;;;1.70;99.90;;;;;;6335522;28;20453;-67
2022/12/03 00:08:13;;;;;;;7.93;6.43;;;1.80;99.90;;;;;;6335702;28;20363;-69
2022/12/03 00:11:19;;;;;;;12.50;7.87;;;1.70;99.90;;;;;;6320645;28;20271;-69
2022/12/03 00:14:24;;;;;;;10.33;7.40;;;1.60;99.90;;;;;;6310479;28;20320;-69
2022/12/03 00:17:29;;;;;;;9.73;7.47;;;1.70;99.90;;;;;;6310499;28;20292;-69
2022/12/03 00:20:34;;;;;;;12.60;7.60;;;1.60;99.90;;;;;;6311217;28;20584;-69
2022/12/03 00:23:38;;;;;;;8.93;6.93;;;1.70;99.90;;;;;;6310405;28;20291;-70
2022/12/03 00:26:47;;;;;;;8.17;6.57;;;1.60;99.90;;;;;;6311208;28;20266;-68
2022/12/03 00:29:52;;;;;;;11.27;7.27;;;1.60;99.90;;;;;;6284386;28;20593;-68
2022/12/03 00:32:56;;;;;;;8.97;7.33;;;1.60;99.90;;;;;;6285060;28;20611;-68
2022/12/03 00:36:01;;;;;;;7.03;6.30;;;1.50;99.90;;;;;;6286173;28;20283;-68
2022/12/03 00:39:06;;;;;;;11.80;6.70;;;1.60;99.90;;;;;;6285223;28;20303;-68
2022/12/03 00:42:13;;;;;;;8.93;6.40;;;1.50;99.90;;;;;;6285676;28;20275;-69
2022/12/03 00:45:18;;;;;;;9.07;6.97;;;1.50;99.90;;;;;;6285611;28;20305;-69
2022/12/03 00:48:22;;;;;;;8.10;6.23;;;1.50;99.90;;;;;;6285635;28;20475;-69
2022/12/03 00:51:27;;;;;;;11.87;6.50;;;1.50;99.90;;;;;;6286079;28;20278;-68
2022/12/03 00:54:32;;;;;;;9.43;6.37;;;1.50;99.90;;;;;;6285345;28;20296;-68
2022/12/03 00:57:38;;;;;;;7.80;6.73;;;1.50;99.90;;;;;;6285083;28;20300;-68
2022/12/03 01:00:43;;;;;;;10.47;7.33;;;1.50;99.90;;;;;;6285527;28;20268;-68
2022/12/03 01:03:47;;;;;;;10.10;7.33;;;1.50;99.90;;;;;;6285065;28;20298;-68
2022/12/03 01:06:52;;;;;;;10.83;7.53;;;1.50;99.90;;;;;;6285605;28;20271;-68
2022/12/03 01:09:57;;;;;;;12.77;7.70;;;1.60;99.90;;;;;;6289213;28;20295;-68
2022/12/03 01:13:03;;;;;;;13.30;8.40;;;1.50;99.90;;;;;;6310195;28;20383;-68
2022/12/03 01:16:08;;;;;;;9.53;7.00;;;1.50;99.90;;;;;;6310199;28;20294;-68
2022/12/03 01:19:15;;;;;;;11.70;7.90;;;1.50;99.90;;;;;;6310005;28;20374;-68
2022/12/03 01:22:20;;;;;;;12.53;8.23;;;1.50;99.90;;;;;;6309961;28;20307;-69
2022/12/03 01:25:25;;;;;;;11.67;8.33;;;1.60;99.90;;;;;;6310293;28;20266;-69
2022/12/03 01:28:31;;;;;;;14.43;7.70;;;1.50;99.90;;;;;;6309797;28;20307;-69
2022/12/03 01:34:58;;;;;;;9.97;7.37;;;1.40;99.90;;;;;;6309324;28;20303;-68
2022/12/03 01:38:03;;;;;;;12.07;7.73;;;1.40;99.90;;;;;;6309528;28;20289;-68
2022/12/03 01:41:09;;;;;;;9.70;7.10;;;1.40;99.90;;;;;;6309973;28;20272;-69
2022/12/03 01:44:19;;;;;;;9.97;7.57;;;1.40;99.90;;;;;;6310349;28;20306;-68
2022/12/03 01:47:30;;;;;;;10.23;7.80;;;1.50;99.90;;;;;;6313922;28;20334;-69
2022/12/03 01:50:35;;;;;;;10.73;7.47;;;1.50;99.90;;;;;;6314103;28;20554;-68
2022/12/03 01:53:40;;;;;;;11.40;7.63;;;1.40;99.90;;;;;;6314221;28;20295;-68
2022/12/03 01:56:45;;;;;;;9.03;6.67;;;1.50;99.90;;;;;;6314262;28;20292;-69
2022/12/03 01:59:52;;;;;;;9.13;7.07;;;1.40;99.90;;;;;;6313214;28;20294;-68
2022/12/03 02:03:02;;;;;;;12.00;6.93;;;1.40;99.90;;;;;;6313537;28;20287;-68
2022/12/03 02:06:11;;;;;;;10.27;6.93;;;1.30;99.90;;;;;;6313995;28;20274;-68
2022/12/03 02:09:16;;;;;;;8.83;6.90;;;1.30;99.90;;;;;;6313618;28;20291;-68
2022/12/03 02:12:24;;;;;;;7.77;6.93;;;1.30;99.90;;;;;;6313265;28;20355;-68
2022/12/03 02:15:31;;;;;;;11.17;7.33;;;1.30;99.90;;;;;;6314177;28;20603;-68
2022/12/03 02:18:36;;;;;;;12.30;7.33;;;1.30;99.90;;;;;;6313630;28;20290;-68
2022/12/03 02:21:46;;;;;;;12.10;7.93;;;1.30;99.90;;;;;;6313712;28;20397;-68
2022/12/03 02:24:56;;;;;;;9.23;7.53;;;1.20;99.90;;;;;;6313426;28;20298;-68
2022/12/03 02:28:03;;;;;;;11.67;7.33;;;1.20;99.90;;;;;;6312840;28;20457;-68
2022/12/03 02:31:08;;;;;;;11.90;7.43;;;1.10;99.90;;;;;;6313752;28;20270;-68
2022/12/03 02:34:35;;;;;;;12.10;7.90;;;1.20;99.90;;;;;;6312857;28;20302;-68
2022/12/03 02:37:40;;;;;;;10.97;8.23;;;1.10;99.90;;;;;;6312870;28;20309;-68
2022/12/03 02:40:47;;;;;;;14.23;7.90;;;1.20;99.90;;;;;;6313609;28;20267;-69
2022/12/03 02:43:53;;;;;;;9.67;7.27;;;1.20;99.90;;;;;;6302750;28;20590;-68
2022/12/03 02:46:58;;;;;;;13.40;7.67;;;1.10;99.90;;;;;;6288652;28;20271;-68
2022/12/03 02:50:03;;;;;;;11.80;7.47;;;1.10;99.90;;;;;;6287634;28;20271;-68
2022/12/03 02:53:13;;;;;;;13.27;7.07;;;1.10;99.90;;;;;;6287849;28;20288;-68
2022/12/03 02:56:21;;;;;;;11.07;6.97;;;1.10;99.90;;;;;;6287850;28;20292;-68
2022/12/03 02:59:27;;;;;;;9.27;6.83;;;1.10;99.90;;;;;;6287619;28;20298;-69
2022/12/03 03:02:32;;;;;;;8.07;6.50;;;1.00;99.90;;;;;;6287589;28;20306;-68
2022/12/03 03:05:38;;;;;;;11.60;6.23;;;1.10;99.90;;;;;;6288144;28;20445;-68
2022/12/03 03:08:43;;;;;;;9.50;6.17;;;1.00;99.90;;;;;;6287292;28;20295;-68
2022/12/03 03:11:48;;;;;;;7.47;6.27;;;1.00;99.90;;;;;;6286491;28;20400;-68
2022/12/03 03:14:54;;;;;;;9.37;6.43;;;1.10;99.90;;;;;;6287509;28;20464;-68
2022/12/03 03:17:59;;;;;;;7.17;5.73;;;1.00;99.90;;;;;;6286760;28;20586;-68
2022/12/03 03:21:05;;;;;;;10.13;6.30;;;1.00;99.90;;;;;;6287626;28;20270;-67
2022/12/03 03:24:11;;;;;;;6.50;5.80;;;1.00;99.90;;;;;;6287133;28;20291;-69
2022/12/03 03:27:16;;;;;;;9.33;6.10;;;1.00;99.90;;;;;;6286671;28;20272;-68
2022/12/03 03:30:22;;;;;;;7.10;6.07;;;1.00;99.90;;;;;;6287363;28;20270;-68
2022/12/03 03:33:27;;;;;;;8.63;5.93;;;0.90;99.90;;;;;;6286764;28;20601;-68
2022/12/03 03:36:32;;;;;;;7.83;6.17;;;0.90;99.90;;;;;;6287284;28;20297;-68
2022/12/03 03:39:37;;;;;;;6.53;5.93;;;0.90;99.90;;;;;;6287003;28;20294;-69
2022/12/03 03:42:42;;;;;;;7.17;6.13;;;1.00;99.90;;;;;;6288741;28;20473;-68
2022/12/03 03:45:49;;;;;;;7.43;5.83;;;0.90;99.90;;;;;;6312030;28;20274;-68
2022/12/03 03:48:54;;;;;;;6.83;6.10;;;0.80;99.90;;;;;;6311103;28;20294;-68
2022/12/03 03:51:59;;;;;;;12.10;7.33;;;0.80;99.90;;;;;;6311635;28;20274;-69
2022/12/03 03:55:05;;;;;;;9.43;6.93;;;0.70;99.90;;;;;;6285787;28;20282;-68
2022/12/03 03:58:12;;;;;;;10.13;7.20;;;0.70;99.90;;;;;;6286709;28;20307;-68
2022/12/03 04:01:18;;;;;;;11.93;7.60;;;0.80;99.90;;;;;;6286630;28;20274;-68
2022/12/03 04:04:26;;;;;;;10.27;7.33;;;0.80;99.90;;;;;;6295077;28;20285;-67
2022/12/03 04:07:30;;;;;;;11.27;7.47;;;0.80;99.90;;;;;;6293093;28;20302;-67
2022/12/03 04:13:58;;;;;;;9.53;6.70;;;0.90;99.90;;;;;;6301585;28;20374;-68
2022/12/03 04:17:04;;;;;;;12.43;7.50;;;0.70;99.90;;;;;;6310818;28;20586;-69
2022/12/03 04:20:13;;;;;;;8.63;6.77;;;0.80;99.90;;;;;;6294223;28;20279;-68
2022/12/03 04:23:16;;;;;;;10.50;7.00;;;0.70;99.90;;;;;;6285796;28;20297;-67
2022/12/03 04:29:43;;;;;;;13.37;7.30;;;0.70;99.90;;;;;;6285572;28;20298;-68
2022/12/03 04:36:12;;;;;;;11.93;6.50;;;0.80;99.90;;;;;;6293554;28;20255;-69
2022/12/03 04:39:17;;;;;;;8.57;6.67;;;0.90;99.90;;;;;;6309729;28;20290;-68
2022/12/03 04:42:21;;;;;;;9.67;6.53;;;0.80;99.90;;;;;;6310279;28;20284;-68
2022/12/03 04:45:26;;;;;;;9.60;6.57;;;0.90;99.90;;;;;;6310378;28;20294;-69
2022/12/03 04:48:32;;;;;;;7.30;5.77;;;0.80;99.90;;;;;;6310163;28;20297;-68
2022/12/03 04:51:37;;;;;;;7.73;5.63;;;0.60;99.90;;;;;;6310327;28;20550;-69
2022/12/03 04:54:42;;;;;;;8.37;6.33;;;0.60;99.90;;;;;;6310273;28;20322;-68
2022/12/03 04:57:47;;;;;;;6.23;5.67;;;0.60;99.90;;;;;;6309641;28;20310;-68
2022/12/03 05:00:51;;;;;;;6.90;5.77;;;0.70;99.90;;;;;;6292707;28;20269;-68
2022/12/03 05:03:58;;;;;;;6.87;5.93;;;0.70;99.90;;;;;;6310198;28;20301;-68
2022/12/03 05:07:03;;;;;;;6.83;5.60;;;0.70;99.90;;;;;;6310037;28;20269;-68
2022/12/03 05:10:12;;;;;;;7.93;5.47;;;0.70;99.90;;;;;;6303305;28;20290;-69
2022/12/03 05:13:17;;;;;;;5.67;5.03;;;0.70;99.90;;;;;;6284680;28;20294;-69
2022/12/03 05:16:22;;;;;;;5.83;5.30;;;0.70;99.90;;;;;;6285573;28;20270;-68
2022/12/03 05:22:46;;;;;;;8.07;5.83;;;0.70;99.90;;;;;;6288985;28;20336;-68
2022/12/03 05:25:51;;;;;;;6.77;5.50;;;0.70;99.90;;;;;;6284160;28;20275;-69
2022/12/03 05:28:56;;;;;;;6.93;5.50;;;0.70;99.90;;;;;;6265430;28;20296;-68
2022/12/03 05:32:00;;;;;;;6.00;5.37;;;0.70;99.90;;;;;;6265459;28;20267;-69
2022/12/03 05:35:07;;;;;;;6.20;5.63;;;0.70;99.90;;;;;;6262792;28;20268;-69
2022/12/03 05:38:14;;;;;;;5.73;5.30;;;0.70;99.90;;;;;;6264565;28;20481;-68
2022/12/03 05:44:41;;;;;;;5.37;4.87;;;0.80;99.90;;;;;;6264262;28;20308;-68
2022/12/03 05:47:46;;;;;;;6.03;4.90;;;0.90;99.90;;;;;;6264247;28;20303;-67
2022/12/03 05:50:52;;;;;;;6.07;5.17;;;0.90;99.90;;;;;;6265013;28;20273;-68
2022/12/03 05:53:56;;;;;;;4.57;4.07;;;0.80;99.90;;;;;;6264595;28;20299;-69
2022/12/03 05:57:01;;;;;;;4.67;4.20;;;0.80;99.90;;;;;;6264893;28;20279;-69
2022/12/03 06:00:11;;;;;;;5.33;4.77;;;0.70;99.90;;;;;;6264116;28;20451;-69
2022/12/03 06:03:19;;;;;;;5.00;4.50;;;0.80;99.90;;;;;;6264441;28;20291;-68
2022/12/03 06:06:26;;;;;;;4.63;4.23;;;0.70;99.90;;;;;;6264664;28;20272;-69
2022/12/03 06:09:30;;;;;;;4.70;4.30;;;0.80;99.90;;;;;;6264781;28;20298;-68
2022/12/03 06:12:35;;;;;;;4.60;4.23;;;0.80;99.90;;;;;;6313214;28;20474;-68
2022/12/03 06:15:40;;;;;;;5.10;4.43;;;0.70;99.90;;;;;;6314223;28;20281;-68
2022/12/03 06:18:47;;;;;;;5.27;4.70;;;0.80;99.90;;;;;;6313198;28;20306;-68
2022/12/03 06:21:54;;;;;;;4.67;4.33;;;0.80;99.90;;;;;;6313906;28;20270;-69
2022/12/03 06:24:59;;;;;;;4.50;4.17;;;0.80;99.90;;;;;;6313223;28;20293;-69
2022/12/03 06:28:12;;;;;;;5.20;4.40;;;0.80;99.90;;;;;;6313121;28;20305;-67
2022/12/03 06:31:16;;;;;;;4.77;4.47;;;0.80;99.90;;;;;;6313473;28;20271;-68
2022/12/03 06:34:22;;;;;;;4.50;4.10;;;0.80;99.90;;;;;;6313251;28;20492;-68
2022/12/03 06:37:28;;;;;;;4.53;4.10;;;0.80;99.90;;;;;;6312800;28;20595;-68
2022/12/03 06:40:33;;;;;;;5.07;4.33;;;0.90;99.90;;;;;;6313462;28;20274;-68
2022/12/03 06:43:37;;;;;;;5.10;4.40;;;0.90;99.90;;;;;;6312484;28;20588;-69
2022/12/03 06:46:42;;;;;;;4.27;3.97;;;0.90;99.90;;;;;;6313633;28;20274;-68
2022/12/03 06:49:47;;;;;;;4.67;4.23;;;0.90;99.90;;;;;;6312838;28;20294;-68
2022/12/03 06:52:53;;;;;;;5.63;4.50;;;0.90;99.90;;;;;;6312916;28;20299;-68
2022/12/03 06:55:58;;;;;;;5.07;4.30;;;0.90;99.90;;;;;;6312965;28;20562;-68
2022/12/03 06:59:02;;;;;;;4.77;4.23;;;0.90;99.90;;;;;;6312362;28;20301;-68
2022/12/03 07:02:07;;;;;;;5.03;4.50;;;0.80;99.90;;;;;;6312845;28;20267;-69
2022/12/03 07:05:12;;;;;;;5.10;4.67;;;0.90;99.90;;;;;;6313078;28;20565;-68
2022/12/03 07:08:18;;;;;;;5.00;4.60;;;0.80;99.90;;;;;;6312375;28;20301;-68
2022/12/03 07:11:38;;;;;;;6.30;5.10;;;0.80;99.90;;;;;;6296760;28;20265;-69
2022/12/03 07:14:43;;;;;;;5.83;5.13;;;0.80;99.90;;;;;;6287257;28;20294;-68
2022/12/03 07:17:47;;;;;;;6.60;4.73;;;0.90;99.90;;;;;;6286987;28;20627;-68
2022/12/03 07:20:53;;;;;;;6.23;4.63;;;0.80;99.90;;;;;;6287394;28;20290;-68
2022/12/03 07:23:59;;;;;;;4.23;4.00;;;0.80;99.90;;;;;;6287173;28;20298;-71
2022/12/03 07:27:04;;;;;;;4.23;4.00;;;0.90;99.90;;;;;;6286724;28;20268;-68
2022/12/03 07:30:11;;;;;;;4.10;3.87;;;0.80;99.90;;;;;;6286932;28;20276;-68
2022/12/03 07:33:16;;;;;;;5.03;4.30;;;0.80;99.90;;;;;;6286839;28;20294;-68
2022/12/03 07:36:20;;;;;;;6.10;4.53;;;0.80;99.90;;;;;;6287587;28;20271;-69
2022/12/03 07:39:27;;;;;;;4.70;3.63;;;0.80;99.90;;;;;;6286979;28;20314;-68
2022/12/03 07:42:31;;;;;;;4.30;4.00;;;0.70;99.90;;;;;;6285363;28;20302;-67
2022/12/03 07:45:36;;;;;;;4.90;4.27;;;0.70;99.90;;;;;;6286620;28;20298;-68
2022/12/03 07:48:41;;;;;;;6.73;4.43;;;0.70;99.90;;;;;;6286778;28;20298;-68
2022/12/03 07:51:52;;;;;;;4.57;4.17;;;0.70;99.90;;;;;;6286705;28;20287;-67
2022/12/03 07:54:58;;;;;;;6.33;4.43;;;0.80;99.90;;;;;;6286472;28;20299;-68
2022/12/03 07:58:03;;;;;;;4.57;4.20;;;0.80;99.90;;;;;;6286497;28;20472;-68
2022/12/03 08:01:09;;;;;;;4.17;3.77;;;0.70;99.90;;;;;;6287136;28;20294;-68
2022/12/03 08:04:17;;;;;;;4.30;4.00;;;0.70;99.90;;;;;;6286014;28;20287;-68
2022/12/03 08:07:21;;;;;;;4.70;3.60;;;0.70;99.90;;;;;;6285884;28;20270;-68
2022/12/03 08:10:27;;;;;;;4.70;4.13;;;0.70;99.90;;;;;;6294696;28;20270;-68
2022/12/03 08:13:34;;;;;;;4.20;3.87;;;0.70;99.90;;;;;;6310778;28;20380;-68
2022/12/03 08:16:41;;;;;;;4.67;3.70;;;0.70;99.90;;;;;;6311051;28;20271;-68
2022/12/03 08:19:47;;;;;;;4.23;3.53;;;0.80;99.90;;;;;;6310244;28;20305;-67
2022/12/03 08:22:53;;;;;;;3.50;3.30;;;0.80;99.90;;;;;;6310673;28;20452;-67
2022/12/03 08:26:01;;;;;;;3.87;3.53;;;0.80;99.90;;;;;;6310853;28;20269;-69
2022/12/03 08:29:09;;;;;;;3.70;3.50;;;0.70;99.90;;;;;;6310446;28;20306;-68
2022/12/03 08:32:14;;;;;;;4.13;3.83;;;0.70;99.90;;;;;;6292890;28;20267;-68
2022/12/03 08:35:23;;;;;;;5.20;3.83;;;0.60;99.90;;;;;;6310974;28;20271;-69
2022/12/03 08:38:30;;;;;;;6.07;3.80;;;0.60;99.90;;;;;;6310492;28;20297;-69
2022/12/03 08:45:16;;;;;;;3.20;3.03;;;0.60;99.90;;;;;;6309766;28;20301;-67
2022/12/03 08:48:38;;;;;;;4.20;3.87;;;0.60;99.90;;;;;;6310176;28;20291;-69
2022/12/03 08:51:51;;;;;;;4.00;3.60;;;0.80;99.90;;;;;;6311049;28;20585;-68
2022/12/03 08:54:58;;;;;;;3.90;3.60;;;0.80;99.90;;;;;;6316258;28;20294;-68
2022/12/03 08:58:16;;;;;;;3.67;3.43;;;0.70;99.90;;;;;;6318351;28;20296;-68
2022/12/03 09:01:38;;;;;;;3.93;3.63;;;0.70;99.90;;;;;;6318691;28;20286;-69
2022/12/03 09:04:46;;;;;;;3.90;3.60;;;0.70;99.90;;;;;;6317958;28;20305;-69
2022/12/03 09:07:50;;;;;;;4.00;3.70;;;0.70;99.90;;;;;;6318317;28;20293;-68
2022/12/03 09:10:55;;;;;;;4.70;4.00;;;0.60;99.90;;;;;;6306945;28;20549;-67
2022/12/03 09:14:01;;;;;;;3.70;3.50;;;0.60;99.90;;;;;;6293481;28;20294;-68
2022/12/03 09:17:06;;;;;;;3.17;2.97;;;0.60;99.90;;;;;;6292917;28;20382;-69
2022/12/03 09:20:12;;;;;;;3.37;3.07;;;0.70;99.90;;;;;;6293388;28;20298;-68
2022/12/03 09:23:17;;;;;;;6.57;3.87;;;0.70;99.90;;;;;;6293295;28;20373;-68
2022/12/03 09:26:22;;;;;;;3.30;3.03;;;0.70;99.90;;;;;;6293615;28;20451;-69
2022/12/03 09:29:28;;;;;;;3.93;3.60;;;0.70;99.90;;;;;;6293531;28;20480;-68
2022/12/03 09:32:33;;;;;;;4.17;3.03;;;0.80;99.90;;;;;;6293273;28;20296;-68
2022/12/03 09:35:39;;;;;;;3.23;3.13;;;0.70;99.90;;;;;;6293680;28;20268;-68
2022/12/03 09:38:44;;;;;;;3.53;3.37;;;0.60;99.90;;;;;;6292906;28;20309;-68
2022/12/03 09:41:51;;;;;;;3.83;3.57;;;0.70;99.90;;;;;;6293156;28;20289;-68
2022/12/03 09:44:58;;;;;;;3.70;3.40;;;0.70;99.90;;;;;;6292405;28;20317;-68
2022/12/03 09:48:04;;;;;;;3.77;3.47;;;0.70;99.90;;;;;;6291969;28;20312;-69
2022/12/03 09:51:10;;;;;;;2.90;2.70;;;0.70;99.90;;;;;;6277558;28;20279;-68
2022/12/03 09:54:23;;;;;;;8.53;3.87;;;0.70;99.90;;;;;;6268003;28;20408;-67
2022/12/03 09:57:28;;;;;;;3.67;3.47;;;0.80;99.90;;;;;;6266308;28;20321;-68
2022/12/03 10:00:34;;;;;;;3.50;3.30;;;0.80;99.90;;;;;;6268146;28;20287;-69
2022/12/03 10:03:43;;;;;;;3.77;3.47;;;0.70;99.90;;;;;;6267337;28;20294;-68
2022/12/03 10:06:48;;;;;;;3.27;3.13;;;0.70;99.90;;;;;;6264179;28;20337;-69
2022/12/03 10:09:53;;;;;;;5.07;3.47;;;0.60;99.90;;;;;;6270882;28;20596;-69
2022/12/03 10:12:58;;;;;;;4.83;3.03;;;0.70;99.90;;;;;;6313029;28;20572;-68
2022/12/03 10:16:05;;;;;;;3.40;3.20;;;0.80;99.90;;;;;;6314230;28;20273;-68
2022/12/03 10:19:12;;;;;;;3.93;3.63;;;0.90;99.90;;;;;;6313697;28;20301;-68
2022/12/03 10:22:17;;;;;;;6.70;6.10;;;0.90;99.90;;;;;;6313042;28;20285;-68
2022/12/03 10:25:23;;;;;;;4.07;3.90;;;0.90;99.90;;;;;;6313653;28;20448;-68
2022/12/03 10:28:31;;;;;;;3.00;2.90;;;1.00;99.90;;;;;;6313172;28;20288;-69
2022/12/03 10:31:37;;;;;;;3.23;3.03;;;0.90;99.90;;;;;;6313563;28;20274;-69
2022/12/03 10:34:43;;;;;;;3.33;3.13;;;0.90;99.90;;;;;;6312559;28;20305;-69
2022/12/03 10:38:03;;;;;;;5.27;4.80;;;1.00;99.90;;;;;;6312865;28;20290;-70
2022/12/03 10:41:25;;;;;;;3.73;3.43;;;1.00;99.90;;;;;;6313167;28;20283;-69
2022/12/03 10:44:30;;;;;;;3.63;3.27;;;1.00;99.90;;;;;;6312601;28;20385;-69
2022/12/03 10:47:36;;;;;;;3.37;3.20;;;1.00;99.90;;;;;;6312494;28;20299;-68
2022/12/03 10:50:50;;;;;;;3.80;3.50;;;1.00;99.90;;;;;;6313177;28;20271;-69
2022/12/03 10:53:56;;;;;;;3.97;3.53;;;1.00;99.90;;;;;;6312834;28;20308;-68
2022/12/03 10:57:01;;;;;;;3.57;3.27;;;1.10;99.90;;;;;;6312655;28;20263;-69
2022/12/03 11:00:08;;;;;;;3.73;3.43;;;1.00;99.90;;;;;;6312235;28;20267;-68
2022/12/03 11:03:20;;;;;;;3.23;3.03;;;1.10;99.90;;;;;;6312519;28;20291;-69
2022/12/03 11:06:25;;;;;;;3.17;2.97;;;1.10;99.90;;;;;;6312882;28;20278;-68
2022/12/03 11:09:32;;;;;;;2.90;2.80;;;1.00;99.90;;;;;;6311922;28;20302;-68
2022/12/03 11:12:37;;;;;;;3.50;3.33;;;0.90;99.90;;;;;;6287220;28;20302;-68
2022/12/03 11:15:44;;;;;;;3.30;3.07;;;1.00;99.90;;;;;;6287459;28;20572;-69
2022/12/03 11:19:02;;;;;;;3.23;3.03;;;0.90;99.90;;;;;;6287220;28;20314;-68
2022/12/03 11:22:41;;;;;;;3.00;2.80;;;0.90;99.90;;;;;;6286788;28;20291;-67
2022/12/03 11:25:49;;;;;;;3.13;3.03;;;0.90;99.90;;;;;;6286949;28;20274;-68
2022/12/03 11:28:56;;;;;;;3.20;3.00;;;0.90;99.90;;;;;;6286822;28;20295;-69
2022/12/03 11:32:01;;;;;;;3.33;3.13;;;0.90;99.90;;;;;;6287140;28;20555;-68
2022/12/03 11:35:12;;;;;;;3.50;3.40;;;0.90;99.90;;;;;;6286472;28;20279;-67
2022/12/03 11:38:43;;;;;;;7.67;6.73;;;1.00;99.90;;;;;;6286788;28;20298;-68
2022/12/03 11:42:37;;;;;;;3.53;3.33;;;1.00;99.90;;;;;;6287151;28;20288;-69
2022/12/03 11:45:42;;;;;;;3.73;3.43;;;1.00;99.90;;;;;;6286191;28;20290;-69
2022/12/03 11:48:51;;;;;;;3.43;3.33;;;0.90;99.90;;;;;;6286251;28;20482;-69
2022/12/03 11:51:58;;;;;;;3.13;3.03;;;0.90;99.90;;;;;;6287225;28;20278;-70
2022/12/03 11:55:14;;;;;;;3.50;3.30;;;0.90;99.90;;;;;;6286119;28;20318;-68
2022/12/03 11:58:26;;;;;;;3.63;3.40;;;1.00;99.90;;;;;;6286385;28;20322;-68
2022/12/03 12:01:35;;;;;;;3.20;3.10;;;1.00;99.90;;;;;;6285014;28;20289;-68
2022/12/03 12:04:46;;;;;;;4.33;3.97;;;1.00;99.90;;;;;;6286295;28;20302;-68
2022/12/03 12:07:54;;;;;;;3.20;3.10;;;0.90;99.90;;;;;;6285707;28;20302;-69
2022/12/03 12:11:00;;;;;;;3.57;3.37;;;0.90;99.90;;;;;;6286434;28;20563;-68
2022/12/03 12:14:05;;;;;;;3.07;2.87;;;1.00;99.90;;;;;;6285807;28;20291;-68
2022/12/03 12:17:33;;;;;;;3.03;2.90;;;1.00;99.90;;;;;;6285869;28;20264;-69
2022/12/03 12:20:38;;;;;;;2.70;2.50;;;1.00;99.90;;;;;;6286581;28;20272;-70
2022/12/03 12:23:45;;;;;;;2.97;2.77;;;1.00;99.90;;;;;;6285892;28;20302;-68
2022/12/03 12:26:51;;;;;;;4.20;3.80;;;0.90;99.90;;;;;;6285730;28;20274;-68
2022/12/03 12:29:57;;;;;;;2.97;2.87;;;1.00;99.90;;;;;;6285345;28;20291;-68
2022/12/03 12:33:21;;;;;;;3.20;3.10;;;0.90;99.90;;;;;;6285797;28;20310;-68
2022/12/03 12:36:28;;;;;;;2.70;2.60;;;0.90;99.90;;;;;;6286432;28;20270;-69
2022/12/03 12:39:35;;;;;;;2.83;2.73;;;0.90;99.90;;;;;;6285895;28;20479;-68
2022/12/03 12:42:45;;;;;;;3.00;2.90;;;0.90;99.90;;;;;;6285780;28;20303;-69
2022/12/03 12:45:51;;;;;;;2.83;2.73;;;1.00;99.90;;;;;;6285556;28;20270;-67
2022/12/03 12:48:56;;;;;;;3.00;2.70;;;1.00;99.90;;;;;;6285422;28;20293;-68
2022/12/03 12:52:05;;;;;;;2.50;2.50;;;1.00;99.90;;;;;;6285828;28;20598;-69
2022/12/03 12:55:13;;;;;;;2.87;2.77;;;0.90;99.90;;;;;;6285012;28;20273;-68
2022/12/03 12:58:20;;;;;;;2.90;2.80;;;0.90;99.90;;;;;;6284199;28;20302;-68
2022/12/03 13:01:28;;;;;;;2.90;2.80;;;1.00;99.90;;;;;;6285990;28;20575;-68
2022/12/03 13:04:38;;;;;;;2.90;2.63;;;0.90;99.90;;;;;;6285137;28;20289;-68
2022/12/03 13:07:44;;;;;;;3.03;2.83;;;1.00;99.90;;;;;;6284850;28;20302;-69
2022/12/03 13:10:52;;;;;;;3.03;2.77;;;0.90;99.90;;;;;;6285519;28;20449;-69
2022/12/03 13:13:56;;;;;;;3.17;2.97;;;0.90;99.90;;;;;;6285503;28;20298;-69
2022/12/03 13:17:10;;;;;;;2.80;2.70;;;0.80;99.90;;;;;;6285250;28;20278;-69
2022/12/03 13:20:15;;;;;;;3.20;3.00;;;0.80;99.90;;;;;;6284737;28;20443;-69
2022/12/03 13:23:29;;;;;;;3.30;3.10;;;0.80;99.90;;;;;;6285041;28;20490;-69
2022/12/03 13:26:39;;;;;;;3.20;3.10;;;0.80;99.90;;;;;;6284934;28;20266;-70
2022/12/03 13:29:45;;;;;;;2.93;2.77;;;0.80;99.90;;;;;;6285284;28;20297;-69
2022/12/03 13:32:49;;;;;;;3.20;3.03;;;0.70;99.90;;;;;;6284975;28;20303;-69
2022/12/03 13:35:56;;;;;;;3.37;3.17;;;0.60;99.90;;;;;;6285071;28;20558;-70
2022/12/03 13:39:00;;;;;;;3.03;2.93;;;0.70;99.90;;;;;;6284592;28;20314;-69
2022/12/03 13:45:44;;;;;;;3.27;3.07;;;0.50;99.90;;;;;;6264768;28;20270;-69
2022/12/03 13:48:49;;;;;;;3.70;3.50;;;0.50;99.90;;;;;;6246903;28;20308;-69
2022/12/03 13:51:54;;;;;;;3.50;3.20;;;0.50;99.90;;;;;;6265063;28;20268;-68
2022/12/03 13:54:59;;;;;;;3.57;3.30;;;0.50;99.90;;;;;;6264493;28;20299;-69
2022/12/03 13:58:05;;;;;;;3.73;3.40;;;0.50;99.90;;;;;;6264305;28;20294;-68
2022/12/03 14:01:11;;;;;;;3.47;3.27;;;0.50;99.90;;;;;;6264613;28;20274;-69
2022/12/03 14:04:15;;;;;;;3.83;3.43;;;0.50;99.90;;;;;;6263877;28;20302;-69
2022/12/03 14:07:20;;;;;;;3.90;3.67;;;0.50;99.90;;;;;;6263848;28;20272;-68
2022/12/03 14:10:25;;;;;;;4.27;3.90;;;0.50;99.90;;;;;;6272174;28;20265;-69
2022/12/03 14:13:31;;;;;;;4.13;3.83;;;0.50;99.90;;;;;;6276715;28;20298;-68
2022/12/03 14:16:36;;;;;;;4.13;3.80;;;0.40;99.90;;;;;;6264660;28;20271;-69
2022/12/03 14:19:41;;;;;;;3.90;3.20;;;0.50;99.90;;;;;;6263590;28;20295;-68
2022/12/03 14:22:46;;;;;;;4.27;3.50;;;0.50;99.90;;;;;;6263763;28;20298;-68
2022/12/03 14:25:51;;;;;;;4.03;3.73;;;0.50;99.90;;;;;;6262618;28;20286;-68
2022/12/03 14:28:57;;;;;;;4.40;3.60;;;0.70;99.90;;;;;;6263808;28;20302;-69
2022/12/03 14:32:02;;;;;;;3.40;3.20;;;0.70;99.90;;;;;;6264433;28;20575;-67
2022/12/03 14:35:08;;;;;;;3.67;3.43;;;0.70;99.90;;;;;;6262852;28;20523;-67
2022/12/03 14:38:14;;;;;;;3.90;3.60;;;0.80;99.90;;;;;;6263041;28;20489;-68
2022/12/03 14:44:43;;;;;;;4.93;4.10;;;0.80;99.90;;;;;;6296343;28;20584;-67
2022/12/03 14:48:03;;;;;;;3.60;3.40;;;0.70;99.90;;;;;;6290391;28;20228;-67
2022/12/03 14:51:08;;;;;;;3.90;3.40;;;0.80;99.90;;;;;;6313084;28;20273;-69
2022/12/03 14:54:13;;;;;;;3.30;3.10;;;0.80;99.90;;;;;;6313099;28;20582;-68
2022/12/03 14:57:17;;;;;;;3.70;3.40;;;0.80;99.90;;;;;;6312934;28;20266;-69
2022/12/03 15:00:24;;;;;;;3.60;3.30;;;0.80;99.90;;;;;;6313187;28;20277;-69
2022/12/03 15:03:28;;;;;;;3.23;3.13;;;0.80;99.90;;;;;;6312706;28;20295;-68
2022/12/03 15:06:33;;;;;;;3.23;2.87;;;0.90;99.90;;;;;;6313347;28;20266;-69
2022/12/03 15:09:38;;;;;;;2.77;2.67;;;0.90;99.90;;;;;;6312420;28;20300;-69
2022/12/03 15:12:43;;;;;;;3.27;2.97;;;0.90;99.90;;;;;;6311955;28;20301;-69
2022/12/03 15:15:49;;;;;;;3.35;3.08;;;0.90;99.90;;;;;;6311998;28;20502;-69
2022/12/03 15:18:54;;;;;;;2.97;2.87;;;0.80;99.90;;;;;;6312358;28;20586;-69
2022/12/03 15:21:59;;;;;;;3.10;2.90;;;0.80;99.90;;;;;;6312577;28;20275;-69
2022/12/03 15:25:04;;;;;;;3.00;2.90;;;0.80;99.90;;;;;;6311600;28;20309;-69
2022/12/03 15:28:12;;;;;;;7.13;2.90;;;0.70;99.90;;;;;;6311982;28;20293;-68
2022/12/03 15:31:19;;;;;;;3.20;3.10;;;0.80;99.90;;;;;;6311899;28;20270;-69
2022/12/03 15:34:23;;;;;;;2.90;2.70;;;0.80;99.90;;;;;;6311747;28;20617;-69
2022/12/03 15:37:28;;;;;;;3.20;3.00;;;0.70;99.90;;;;;;6311181;28;20292;-70
2022/12/03 15:40:33;;;;;;;2.83;2.73;;;0.80;99.90;;;;;;6311953;28;20266;-69
2022/12/03 15:43:38;;;;;;;3.37;3.03;;;0.70;99.90;;;;;;6311884;28;20329;-69
2022/12/03 15:46:44;;;;;;;4.13;3.93;;;0.80;99.90;;;;;;6294740;28;20304;-68
2022/12/03 15:49:49;;;;;;;3.20;3.00;;;0.90;99.90;;;;;;6311805;28;20297;-68
2022/12/03 15:52:54;;;;;;;2.80;2.70;;;0.90;99.90;;;;;;6311098;28;20310;-68
2022/12/03 15:55:58;;;;;;;2.70;2.60;;;0.90;99.90;;;;;;6312165;28;20270;-68
2022/12/03 15:59:03;;;;;;;3.72;3.50;;;0.90;99.90;;;;;;6310574;28;20493;-67
2022/12/03 16:02:09;;;;;;;2.73;2.63;;;1.00;99.90;;;;;;6311060;28;20269;-70
2022/12/03 16:05:14;;;;;;;3.70;3.07;;;0.90;99.90;;;;;;6310838;28;20284;-71
2022/12/03 16:08:19;;;;;;;2.90;2.80;;;0.90;99.90;;;;;;6310904;28;20290;-69
2022/12/03 16:11:24;;;;;;;3.17;2.90;;;0.90;99.90;;;;;;6311627;28;20270;-69
2022/12/03 16:14:29;;;;;;;3.23;2.60;;;0.90;99.90;;;;;;6310960;28;20301;-70
2022/12/03 16:17:35;;;;;;;3.30;3.10;;;0.80;99.90;;;;;;6310711;28;20292;-70
2022/12/03 16:20:40;;;;;;;3.10;3.00;;;0.80;99.90;;;;;;6310908;28;20270;-70
2022/12/03 16:23:44;;;;;;;4.07;3.87;;;0.80;99.90;;;;;;6310579;28;20305;-69
2022/12/03 16:26:49;;;;;;;3.60;3.30;;;0.90;99.90;;;;;;6310988;28;20270;-70
2022/12/03 16:29:55;;;;;;;3.77;3.57;;;0.90;99.90;;;;;;6310201;28;20509;-69
2022/12/03 16:33:01;;;;;;;3.20;3.10;;;0.90;99.90;;;;;;6310122;28;20332;-69
2022/12/03 16:36:07;;;;;;;3.23;2.93;;;0.90;99.90;;;;;;6310717;28;20273;-70
2022/12/03 16:39:12;;;;;;;3.17;2.97;;;0.90;99.90;;;;;;6310528;28;20290;-70
2022/12/03 16:42:17;;;;;;;3.23;3.00;;;0.90;99.90;;;;;;6310621;28;20305;-70
2022/12/03 16:45:32;;;;;;;2.67;2.57;;;0.90;99.90;;;;;;6310913;28;20305;-70
2022/12/03 16:48:38;;;;;;;3.93;3.63;;;0.90;99.90;;;;;;6310354;28;20456;-71
2022/12/03 16:51:43;;;;;;;3.60;3.40;;;0.90;99.90;;;;;;6310808;28;20265;-69
2022/12/03 16:54:48;;;;;;;3.17;3.07;;;0.90;99.90;;;;;;6310697;28;20573;-68